createdAt,value
2019-03-26T00:00:36.208Z,1.07
2019-03-26T00:05:41.571Z,1.10
2019-03-26T00:10:47.623Z,1.10
2019-03-26T00:15:53.306Z,1.20
2019-03-26T00:20:59.004Z,1.10
2019-03-26T00:26:04.688Z,1.00
2019-03-26T00:31:10.049Z,1.00
2019-03-26T00:36:15.761Z,0.80
2019-03-26T00:41:21.481Z,1.27
2019-03-26T00:46:27.422Z,1.07
2019-03-26T00:51:33.420Z,1.13
2019-03-26T00:56:38.818Z,0.90
2019-03-26T01:01:44.554Z,1.00
2019-03-26T01:06:49.923Z,0.93
2019-03-26T01:11:55.754Z,1.10
2019-03-26T01:17:01.493Z,1.13
2019-03-26T01:22:06.882Z,1.10
2019-03-26T01:27:12.465Z,1.10
2019-03-26T01:32:17.952Z,1.07
2019-03-26T01:37:23.542Z,0.77
2019-03-26T01:42:29.238Z,0.90
2019-03-26T01:47:34.581Z,0.90
2019-03-26T01:52:40.305Z,0.93
2019-03-26T01:57:45.733Z,1.17
2019-03-26T02:02:51.487Z,0.97
2019-03-26T02:07:56.987Z,0.93
2019-03-26T02:13:02.719Z,0.77
2019-03-26T02:18:08.219Z,0.63
2019-03-26T02:23:14.131Z,1.00
2019-03-26T02:28:19.548Z,0.83
2019-03-26T02:33:25.062Z,0.90
2019-03-26T02:38:31.266Z,0.93
2019-03-26T02:43:36.946Z,0.90
2019-03-26T02:48:42.679Z,1.00
2019-03-26T02:53:48.175Z,0.80
2019-03-26T02:58:54.259Z,1.07
2019-03-26T03:04:00.007Z,0.80
2019-03-26T03:09:06.543Z,1.00
2019-03-26T03:14:12.150Z,1.00
2019-03-26T03:19:17.592Z,0.90
2019-03-26T03:24:23.277Z,0.80
2019-03-26T03:29:28.901Z,0.80
2019-03-26T03:34:34.617Z,1.00
2019-03-26T03:39:40.362Z,1.07
2019-03-26T03:44:45.900Z,0.90
2019-03-26T03:49:51.757Z,0.73
2019-03-26T03:54:57.550Z,1.03
2019-03-26T04:00:05.077Z,1.23
2019-03-26T04:05:10.568Z,1.20
2019-03-26T04:10:16.275Z,1.23
2019-03-26T04:15:21.845Z,0.90
2019-03-26T04:20:27.523Z,0.93
2019-03-26T04:25:32.962Z,0.83
2019-03-26T04:30:38.494Z,1.10
2019-03-26T04:35:44.171Z,0.87
2019-03-26T04:40:50.597Z,1.30
2019-03-26T04:45:56.374Z,1.10
2019-03-26T04:51:02.724Z,0.83
2019-03-26T04:56:08.102Z,1.03
2019-03-26T05:01:14.100Z,1.10
2019-03-26T05:06:19.949Z,1.07
2019-03-26T05:11:25.726Z,1.10
2019-03-26T05:16:31.636Z,1.20
2019-03-26T05:21:37.068Z,1.27
2019-03-26T05:26:42.819Z,1.10
2019-03-26T05:31:48.533Z,1.00
2019-03-26T05:36:54.171Z,1.27
2019-03-26T05:41:59.942Z,1.00
2019-03-26T05:47:05.509Z,1.07
2019-03-26T05:52:10.976Z,1.13
2019-03-26T05:57:17.085Z,1.70
2019-03-26T06:02:25.545Z,1.37
2019-03-26T06:07:31.464Z,1.10
2019-03-26T06:12:37.136Z,1.33
2019-03-26T06:17:42.927Z,1.13
2019-03-26T06:22:48.616Z,1.03
2019-03-26T06:27:53.998Z,1.17
2019-03-26T06:32:59.717Z,1.27
2019-03-26T06:38:05.385Z,1.23
2019-03-26T06:43:11.334Z,1.40
2019-03-26T06:48:16.768Z,1.10
2019-03-26T06:53:23.983Z,1.60
2019-03-26T06:58:29.761Z,1.27
2019-03-26T07:03:35.545Z,1.73
2019-03-26T07:08:40.961Z,1.03
2019-03-26T07:13:46.656Z,1.10
2019-03-26T07:18:52.053Z,1.33
2019-03-26T07:23:57.726Z,1.10
2019-03-26T07:29:03.192Z,1.50
2019-03-26T07:34:08.728Z,1.20
2019-03-26T07:39:14.445Z,1.20
2019-03-26T07:44:20.233Z,1.20
2019-03-26T07:49:26.271Z,1.17
2019-03-26T07:54:32.733Z,1.40
2019-03-26T07:59:38.509Z,1.10
2019-03-26T08:04:44.186Z,1.20
2019-03-26T08:09:49.717Z,1.10
2019-03-26T08:14:55.167Z,1.10
2019-03-26T08:20:01.143Z,1.10
2019-03-26T08:25:07.334Z,1.20
2019-03-26T08:30:12.797Z,1.30
2019-03-26T08:35:18.154Z,1.00
2019-03-26T08:40:23.653Z,0.90
2019-03-26T08:45:29.218Z,0.90
2019-03-26T08:50:35.803Z,0.90
2019-03-26T08:55:41.406Z,1.07
2019-03-26T09:00:47.169Z,1.03
2019-03-26T09:05:52.687Z,0.93
2019-03-26T09:10:58.573Z,0.97
2019-03-26T09:16:04.641Z,1.07
2019-03-26T09:21:10.321Z,1.17
2019-03-26T09:26:16.059Z,2.20
2019-03-26T09:31:21.679Z,1.50
2019-03-26T09:36:27.438Z,2.03
2019-03-26T09:41:32.934Z,1.30
2019-03-26T09:46:38.635Z,1.43
2019-03-26T09:51:45.565Z,1.30
2019-03-26T09:56:51.366Z,0.90
2019-03-26T10:01:57.282Z,1.20
2019-03-26T10:07:02.858Z,1.17
2019-03-26T10:12:08.373Z,1.30
2019-03-26T10:17:14.158Z,1.33
2019-03-26T10:22:20.151Z,1.20
2019-03-26T10:27:26.046Z,1.17
2019-03-26T10:32:31.954Z,1.50
2019-03-26T10:37:37.951Z,1.47
2019-03-26T10:42:43.716Z,0.80
2019-03-26T10:47:49.741Z,1.43
2019-03-26T10:52:55.237Z,1.37
2019-03-26T10:58:00.822Z,1.20
2019-03-26T11:03:07.489Z,0.90
2019-03-26T11:08:13.435Z,0.90
2019-03-26T11:13:19.136Z,1.03
2019-03-26T11:18:25.471Z,1.40
2019-03-26T11:23:31.242Z,1.33
2019-03-26T11:28:36.859Z,1.23
2019-03-26T11:33:42.935Z,1.20
2019-03-26T11:38:48.800Z,0.87
2019-03-26T11:43:54.313Z,1.27
2019-03-26T11:49:00.182Z,1.40
2019-03-26T11:54:06.081Z,0.87
2019-03-26T11:59:11.588Z,1.50
2019-03-26T12:04:17.722Z,1.40
2019-03-26T12:09:23.459Z,1.70
2019-03-26T12:14:28.992Z,2.07
2019-03-26T12:19:34.617Z,1.50
2019-03-26T12:24:40.714Z,1.53
2019-03-26T12:29:46.617Z,1.47
2019-03-26T12:34:53.277Z,1.20
2019-03-26T12:40:00.621Z,1.73
2019-03-26T12:45:07.374Z,1.33
2019-03-26T12:50:13.445Z,1.27
2019-03-26T12:55:19.726Z,1.40
2019-03-26T13:00:31.754Z,1.10
2019-03-26T13:05:37.328Z,1.30
2019-03-26T13:10:52.818Z,1.10
2019-03-26T13:15:50.785Z,1.30
2019-03-26T13:20:56.707Z,1.40
2019-03-26T13:26:02.489Z,3.00
2019-03-26T13:31:08.655Z,1.40
2019-03-26T13:36:14.578Z,1.73
2019-03-26T13:41:20.989Z,1.80
2019-03-26T13:46:26.746Z,2.63
2019-03-26T13:51:32.550Z,1.80
2019-03-26T13:56:39.202Z,2.50
2019-03-26T14:01:45.713Z,1.70
2019-03-26T14:06:52.651Z,1.40
2019-03-26T14:11:59.130Z,1.70
2019-03-26T14:17:05.874Z,2.93
2019-03-26T14:22:11.962Z,4.60
2019-03-26T14:27:17.664Z,2.60
2019-03-26T14:32:23.545Z,1.70
2019-03-26T14:37:28.914Z,1.13
2019-03-26T14:42:35.276Z,1.53
2019-03-26T14:47:41.044Z,1.73
2019-03-26T14:52:46.783Z,2.00
2019-03-26T14:57:52.511Z,1.60
2019-03-26T15:02:57.969Z,7.57
2019-03-26T15:08:03.809Z,3.30
2019-03-26T15:13:09.807Z,5.87
2019-03-26T15:18:15.405Z,2.83
2019-03-26T15:23:21.255Z,2.17
2019-03-26T15:28:26.806Z,2.77
2019-03-26T15:33:33.862Z,1.70
2019-03-26T15:38:40.001Z,1.70
2019-03-26T15:43:45.432Z,1.23
2019-03-26T15:48:51.125Z,1.80
2019-03-26T15:53:56.566Z,1.43
2019-03-26T15:59:02.178Z,1.23
2019-03-26T16:04:08.215Z,1.50
2019-03-26T16:09:13.649Z,1.53
2019-03-26T16:14:19.174Z,1.47
2019-03-26T16:19:32.034Z,1.47
2019-03-26T16:24:34.418Z,1.47
2019-03-26T16:29:40.165Z,1.20
2019-03-26T16:34:46.233Z,1.43
2019-03-26T16:39:52.038Z,1.50
2019-03-26T16:44:57.483Z,2.40
2019-03-26T16:50:03.096Z,3.07
2019-03-26T16:55:08.809Z,5.63
2019-03-26T17:00:15.406Z,8.73
2019-03-26T17:05:26.400Z,2.30
2019-03-26T17:10:31.897Z,2.67
2019-03-26T17:15:37.329Z,2.00
2019-03-26T17:20:43.628Z,1.80
2019-03-26T17:25:49.164Z,1.60
2019-03-26T17:30:55.176Z,1.50
2019-03-26T17:36:00.773Z,1.70
2019-03-26T17:41:06.515Z,1.80
2019-03-26T17:46:11.924Z,1.70
2019-03-26T17:51:17.867Z,1.80
2019-03-26T17:56:23.668Z,2.00
2019-03-26T18:01:29.161Z,2.10
2019-03-26T18:06:34.901Z,2.57
2019-03-26T18:11:40.621Z,4.50
2019-03-26T18:16:46.242Z,7.27
2019-03-26T18:21:52.120Z,10.07
2019-03-26T18:26:57.991Z,5.10
2019-03-26T18:32:03.604Z,4.20
2019-03-26T18:37:09.213Z,3.20
2019-03-26T18:42:14.635Z,3.70
2019-03-26T18:47:20.244Z,3.00
2019-03-26T18:52:25.703Z,2.57
2019-03-26T18:57:31.540Z,2.60
2019-03-26T19:02:37.208Z,2.60
2019-03-26T19:07:42.650Z,2.33
2019-03-26T19:12:56.797Z,2.57
2019-03-26T19:17:55.534Z,2.43
2019-03-26T19:23:01.773Z,2.50
2019-03-26T19:28:07.310Z,2.47
2019-03-26T19:33:13.137Z,2.83
2019-03-26T19:38:19.574Z,3.13
2019-03-26T19:43:25.145Z,2.57
2019-03-26T19:48:31.346Z,3.50
2019-03-26T19:53:36.844Z,4.20
2019-03-26T19:58:42.578Z,3.47
2019-03-26T20:03:47.912Z,3.43
2019-03-26T20:08:53.342Z,3.00
2019-03-26T20:13:59.085Z,3.30
2019-03-26T20:19:04.526Z,3.07
2019-03-26T20:24:10.048Z,3.47
2019-03-26T20:29:15.645Z,3.13
2019-03-26T20:34:21.290Z,2.97
2019-03-26T20:39:26.902Z,2.93
2019-03-26T20:44:32.953Z,2.97
2019-03-26T20:49:38.901Z,3.40
2019-03-26T20:54:44.502Z,3.40
2019-03-26T20:59:50.181Z,3.60
2019-03-26T21:04:56.025Z,3.13
2019-03-26T21:10:01.574Z,3.77
2019-03-26T21:15:08.581Z,4.53
2019-03-26T21:20:14.606Z,3.63
2019-03-26T21:25:20.373Z,3.30
2019-03-26T21:30:25.896Z,3.37
2019-03-26T21:35:31.586Z,3.73
2019-03-26T21:40:37.260Z,3.40
2019-03-26T21:45:42.756Z,3.33
2019-03-26T21:50:48.345Z,3.43
2019-03-26T21:56:05.876Z,3.77
2019-03-26T22:01:01.453Z,3.63
2019-03-26T22:06:06.861Z,3.20
2019-03-26T22:11:12.448Z,2.93
2019-03-26T22:16:17.878Z,3.93
2019-03-26T22:21:23.247Z,3.03
2019-03-26T22:26:28.865Z,3.13
2019-03-26T22:31:34.318Z,2.93
2019-03-26T22:36:40.425Z,3.00
2019-03-26T22:41:45.894Z,3.17
2019-03-26T22:46:51.316Z,3.07
2019-03-26T22:51:57.085Z,2.83
2019-03-26T22:57:02.764Z,2.83
2019-03-26T23:02:08.698Z,2.80
2019-03-26T23:07:14.025Z,3.10
2019-03-26T23:12:19.620Z,3.67
2019-03-26T23:17:25.677Z,3.47
2019-03-26T23:22:31.895Z,3.67
2019-03-26T23:27:37.346Z,4.13
2019-03-26T23:32:43.062Z,3.77
2019-03-26T23:37:48.441Z,3.50
2019-03-26T23:42:54.118Z,3.83
2019-03-26T23:47:59.789Z,3.53
2019-03-26T23:53:05.183Z,3.53
2019-03-26T23:58:10.610Z,3.73
